createdAt,value
2018-08-11T00:01:42.256Z,74.70
2018-08-11T00:04:12.565Z,74.90
2018-08-11T00:06:42.993Z,75.20
2018-08-11T00:09:13.370Z,75.30
2018-08-11T00:11:43.778Z,75.50
2018-08-11T00:14:14.106Z,75.60
2018-08-11T00:16:44.503Z,75.80
2018-08-11T00:19:14.861Z,75.70
2018-08-11T00:21:45.248Z,75.80
2018-08-11T00:24:15.662Z,75.80
2018-08-11T00:26:46.077Z,75.80
2018-08-11T00:29:16.429Z,75.90
2018-08-11T00:31:46.749Z,76.10
2018-08-11T00:34:17.089Z,75.90
2018-08-11T00:36:47.367Z,76.10
2018-08-11T00:39:17.694Z,76.60
2018-08-11T00:41:48.060Z,76.10
2018-08-11T00:44:18.401Z,76.20
2018-08-11T00:46:48.741Z,76.30
2018-08-11T00:49:19.096Z,76.50
2018-08-11T00:51:49.451Z,76.60
2018-08-11T00:54:19.784Z,77.50
2018-08-11T00:56:50.245Z,78.10
2018-08-11T00:59:20.617Z,78.60
2018-08-11T01:01:50.942Z,79.40
2018-08-11T01:04:21.337Z,79.70
2018-08-11T01:06:51.661Z,80.30
2018-08-11T01:09:22.008Z,80.40
2018-08-11T01:11:53.264Z,80.10
2018-08-11T01:14:23.629Z,80.40
2018-08-11T01:16:54.074Z,80.50
2018-08-11T01:19:24.496Z,80.40
2018-08-11T01:21:54.948Z,80.40
2018-08-11T01:24:25.359Z,79.80
2018-08-11T01:26:55.769Z,80.00
2018-08-11T01:29:26.684Z,79.80
2018-08-11T01:31:57.096Z,79.70
2018-08-11T01:34:27.423Z,80.10
2018-08-11T01:36:57.776Z,79.30
2018-08-11T01:39:29.054Z,78.90
2018-08-11T01:41:59.443Z,78.80
2018-08-11T01:44:31.055Z,78.90
2018-08-11T01:47:01.547Z,79.00
2018-08-11T01:49:31.911Z,78.70
2018-08-11T01:52:02.378Z,78.80
2018-08-11T01:54:33.184Z,78.80
2018-08-11T01:57:03.791Z,78.80
2018-08-11T01:59:34.145Z,78.40
2018-08-11T02:02:04.750Z,78.60
2018-08-11T02:04:35.112Z,82.70
2018-08-11T02:07:05.619Z,85.00
2018-08-11T02:09:36.616Z,83.70
2018-08-11T02:12:07.990Z,82.90
2018-08-11T02:14:38.646Z,86.20
2018-08-11T02:17:09.055Z,88.00
2018-08-11T02:19:39.449Z,88.90
2018-08-11T02:22:09.924Z,84.60
2018-08-11T02:24:40.327Z,89.80
2018-08-11T02:27:10.719Z,92.10
2018-08-11T02:29:41.038Z,93.00
2018-08-11T02:32:11.501Z,93.40
2018-08-11T02:34:41.962Z,93.70
2018-08-11T02:37:12.394Z,95.00
2018-08-11T02:39:42.784Z,95.00
2018-08-11T02:42:13.508Z,95.00
2018-08-11T02:44:43.926Z,95.60
2018-08-11T02:47:14.283Z,95.50
2018-08-11T02:49:44.649Z,95.60
2018-08-11T02:52:15.033Z,95.50
2018-08-11T02:54:45.378Z,95.90
2018-08-11T02:57:15.720Z,95.70
2018-08-11T02:59:46.115Z,96.70
2018-08-11T03:02:16.526Z,96.10
2018-08-11T03:04:46.812Z,96.30
2018-08-11T03:07:17.151Z,96.40
2018-08-11T03:09:47.529Z,96.90
2018-08-11T03:12:17.975Z,96.70
2018-08-11T03:14:48.284Z,96.90
2018-08-11T03:17:18.612Z,97.80
2018-08-11T03:19:48.954Z,97.20
2018-08-11T03:22:19.346Z,97.20
2018-08-11T03:24:49.827Z,97.00
2018-08-11T03:27:20.284Z,96.40
2018-08-11T03:29:51.402Z,96.20
2018-08-11T03:32:21.704Z,96.40
2018-08-11T03:34:52.212Z,96.60
2018-08-11T03:37:22.581Z,97.00
2018-08-11T03:39:53.359Z,97.30
2018-08-11T03:42:24.140Z,97.10
2018-08-11T03:44:54.464Z,97.50
2018-08-11T03:47:25.264Z,97.30
2018-08-11T03:49:55.642Z,96.80
2018-08-11T03:52:26.019Z,96.60
2018-08-11T03:54:56.324Z,96.70
2018-08-11T03:57:26.677Z,96.80
2018-08-11T03:59:57.000Z,96.90
2018-08-11T04:02:27.410Z,96.80
2018-08-11T04:04:57.689Z,96.90
2018-08-11T04:07:28.125Z,96.80
2018-08-11T04:09:59.379Z,96.80
2018-08-11T04:12:30.078Z,96.70
2018-08-11T04:15:00.408Z,96.80
2018-08-11T04:17:36.539Z,96.70
2018-08-11T04:20:07.816Z,96.80
2018-08-11T04:22:38.415Z,96.60
2018-08-11T04:25:09.241Z,96.90
2018-08-11T04:27:39.838Z,97.00
2018-08-11T04:30:11.628Z,97.20
2018-08-11T04:32:41.976Z,97.30
2018-08-11T04:35:12.301Z,97.60
2018-08-11T04:37:42.773Z,97.50
2018-08-11T04:40:13.080Z,97.20
2018-08-11T04:42:43.636Z,97.00
2018-08-11T04:45:13.977Z,97.20
2018-08-11T04:47:44.551Z,98.10
2018-08-11T04:50:15.426Z,98.30
2018-08-11T04:52:45.793Z,98.00
2018-08-11T04:55:16.146Z,97.40
2018-08-11T04:57:46.467Z,97.50
2018-08-11T05:00:16.907Z,97.20
2018-08-11T05:02:47.338Z,97.00
2018-08-11T05:05:17.669Z,97.00
2018-08-11T05:07:47.981Z,97.10
2018-08-11T05:10:18.287Z,97.30
2018-08-11T05:12:48.635Z,97.80
2018-08-11T05:15:19.116Z,97.90
2018-08-11T05:17:49.608Z,97.90
2018-08-11T05:20:20.000Z,98.40
2018-08-11T05:22:50.317Z,98.10
2018-08-11T05:25:20.707Z,98.20
2018-08-11T05:27:51.091Z,98.30
2018-08-11T05:30:21.517Z,98.20
2018-08-11T05:32:51.857Z,98.10
2018-08-11T05:35:22.188Z,98.10
2018-08-11T05:37:52.580Z,98.00
2018-08-11T05:40:22.942Z,97.80
2018-08-11T05:42:53.606Z,98.40
2018-08-11T05:45:23.957Z,97.70
2018-08-11T05:47:54.296Z,97.90
2018-08-11T05:50:24.705Z,97.90
2018-08-11T05:52:54.986Z,98.20
2018-08-11T05:55:25.324Z,98.00
2018-08-11T05:57:55.660Z,98.00
2018-08-11T06:00:26.036Z,97.70
2018-08-11T06:02:56.356Z,97.60
2018-08-11T06:05:26.732Z,98.10
2018-08-11T06:07:57.060Z,97.70
2018-08-11T06:10:27.457Z,97.30
2018-08-11T06:12:57.747Z,97.90
2018-08-11T06:15:28.067Z,97.40
2018-08-11T06:17:58.362Z,96.60
2018-08-11T06:20:28.681Z,97.00
2018-08-11T06:22:58.974Z,97.30
2018-08-11T06:25:29.317Z,97.30
2018-08-11T06:27:59.639Z,97.10
2018-08-11T06:30:29.972Z,97.20
2018-08-11T06:33:00.312Z,96.80
2018-08-11T06:35:30.665Z,97.20
2018-08-11T06:38:01.046Z,97.00
2018-08-11T06:40:31.442Z,97.00
2018-08-11T06:43:01.852Z,96.90
2018-08-11T06:45:32.198Z,97.00
2018-08-11T06:48:02.560Z,97.30
2018-08-11T06:50:32.920Z,96.70
2018-08-11T06:53:03.268Z,96.70
2018-08-11T06:55:33.615Z,96.40
2018-08-11T06:58:03.873Z,96.60
2018-08-11T07:00:34.143Z,96.70
2018-08-11T07:03:04.544Z,96.60
2018-08-11T07:05:34.942Z,96.00
2018-08-11T07:08:05.353Z,95.50
2018-08-11T07:10:35.729Z,96.00
2018-08-11T07:13:06.124Z,95.80
2018-08-11T07:15:36.557Z,95.90
2018-08-11T07:18:07.021Z,95.40
2018-08-11T07:20:37.365Z,95.50
2018-08-11T07:23:07.792Z,95.70
2018-08-11T07:25:38.262Z,95.60
2018-08-11T07:28:08.955Z,95.70
2018-08-11T07:30:39.415Z,95.50
2018-08-11T07:33:09.836Z,95.60
2018-08-11T07:35:40.747Z,95.70
2018-08-11T07:40:47.648Z,95.80
2018-08-11T07:43:18.009Z,96.40
2018-08-11T07:45:48.367Z,96.20
2018-08-11T07:48:18.679Z,96.00
2018-08-11T07:50:49.024Z,96.10
2018-08-11T07:53:19.439Z,96.00
2018-08-11T07:55:49.819Z,95.60
2018-08-11T07:58:20.600Z,96.30
2018-08-11T08:00:52.027Z,96.30
2018-08-11T08:03:22.407Z,95.20
2018-08-11T08:05:52.794Z,95.60
2018-08-11T08:08:23.245Z,95.30
2018-08-11T08:10:53.682Z,94.90
2018-08-11T08:13:24.091Z,94.50
2018-08-11T08:15:54.364Z,94.00
2018-08-11T08:18:24.819Z,94.10
2018-08-11T08:20:55.101Z,93.40
2018-08-11T08:23:25.646Z,93.60
2018-08-11T08:25:56.036Z,93.20
2018-08-11T08:28:26.326Z,93.10
2018-08-11T08:30:56.592Z,93.50
2018-08-11T08:33:26.965Z,92.80
2018-08-11T08:35:57.320Z,92.40
2018-08-11T08:38:27.752Z,92.40
2018-08-11T08:40:58.102Z,92.20
2018-08-11T08:43:28.416Z,92.50
2018-08-11T08:45:58.771Z,92.20
2018-08-11T08:48:29.143Z,91.20
2018-08-11T08:50:59.653Z,90.90
2018-08-11T08:53:30.206Z,90.40
2018-08-11T08:56:01.885Z,89.70
2018-08-11T08:58:32.299Z,89.90
2018-08-11T09:01:02.709Z,88.40
2018-08-11T09:03:33.483Z,88.40
2018-08-11T09:06:04.133Z,88.60
2018-08-11T09:08:34.693Z,88.30
2018-08-11T09:11:05.070Z,86.90
2018-08-11T09:13:35.534Z,88.00
2018-08-11T09:16:05.949Z,83.20
2018-08-11T09:18:36.337Z,84.70
2018-08-11T09:21:06.766Z,84.60
2018-08-11T09:23:37.289Z,85.00
2018-08-11T09:26:08.026Z,84.90
2018-08-11T09:28:38.418Z,85.00
2018-08-11T09:31:08.784Z,84.80
2018-08-11T09:33:39.158Z,83.40
2018-08-11T09:36:09.491Z,83.70
2018-08-11T09:38:39.778Z,84.50
2018-08-11T09:41:10.538Z,85.70
2018-08-11T09:43:40.914Z,85.40
2018-08-11T09:46:11.245Z,83.70
2018-08-11T09:48:41.670Z,81.20
2018-08-11T09:51:12.119Z,79.10
2018-08-11T09:53:42.560Z,76.90
2018-08-11T09:56:12.844Z,78.50
2018-08-11T09:58:43.163Z,78.30
2018-08-11T10:01:18.734Z,76.10
2018-08-11T10:03:49.212Z,75.70
2018-08-11T10:06:19.843Z,74.70
2018-08-11T10:08:50.208Z,74.20
2018-08-11T10:11:20.583Z,74.30
2018-08-11T10:13:51.039Z,76.40
2018-08-11T10:16:21.566Z,75.70
2018-08-11T10:18:51.924Z,74.00
2018-08-11T10:21:22.296Z,74.80
2018-08-11T10:23:52.693Z,77.00
2018-08-11T10:26:23.022Z,78.80
2018-08-11T10:28:53.327Z,79.70
2018-08-11T10:31:24.036Z,80.90
2018-08-11T10:33:54.434Z,81.40
2018-08-11T10:36:24.846Z,81.50
2018-08-11T10:38:55.321Z,81.60
2018-08-11T10:41:25.713Z,81.40
2018-08-11T10:43:56.084Z,82.30
2018-08-11T10:46:26.401Z,81.40
2018-08-11T10:48:57.175Z,81.90
2018-08-11T10:51:27.503Z,83.30
2018-08-11T10:53:57.793Z,81.30
2018-08-11T10:56:28.132Z,81.00
2018-08-11T10:58:58.534Z,79.30
2018-08-11T11:01:28.919Z,77.90
2018-08-11T11:03:59.291Z,76.00
2018-08-11T11:06:29.749Z,73.90
2018-08-11T11:09:00.128Z,73.30
2018-08-11T11:11:30.523Z,72.70
2018-08-11T11:14:00.977Z,72.30
2018-08-11T11:16:31.340Z,70.60
2018-08-11T11:19:01.687Z,70.90
2018-08-11T11:21:31.983Z,70.00
2018-08-11T11:24:02.363Z,70.60
2018-08-11T11:26:32.717Z,70.30
2018-08-11T11:29:03.092Z,68.90
2018-08-11T11:31:33.411Z,69.60
2018-08-11T11:34:03.799Z,70.10
2018-08-11T11:36:34.163Z,67.50
2018-08-11T11:39:06.518Z,68.60
2018-08-11T11:41:37.352Z,69.60
2018-08-11T11:44:08.339Z,69.80
2018-08-11T11:46:38.602Z,70.50
2018-08-11T11:49:08.900Z,72.50
2018-08-11T11:51:39.182Z,72.90
2018-08-11T11:54:09.591Z,75.40
2018-08-11T11:56:39.968Z,76.50
2018-08-11T11:59:10.353Z,78.50
2018-08-11T12:01:40.679Z,81.60
2018-08-11T12:04:11.091Z,87.70
2018-08-11T12:06:41.751Z,91.30
2018-08-11T12:09:12.585Z,88.50
2018-08-11T12:11:42.887Z,91.80
2018-08-11T12:14:13.279Z,92.60
2018-08-11T12:16:43.600Z,93.10
2018-08-11T12:19:13.971Z,94.60
2018-08-11T12:21:44.288Z,94.30
2018-08-11T12:24:14.632Z,94.10
2018-08-11T12:26:44.950Z,95.20
2018-08-11T12:29:15.335Z,95.40
2018-08-11T12:31:45.656Z,95.20
2018-08-11T12:34:15.978Z,94.50
2018-08-11T12:36:46.340Z,94.70
2018-08-11T12:39:16.709Z,94.30
2018-08-11T12:41:47.070Z,94.70
2018-08-11T12:44:17.463Z,92.40
2018-08-11T12:46:47.782Z,90.40
2018-08-11T12:49:18.171Z,82.20
2018-08-11T12:51:48.515Z,80.40
2018-08-11T12:54:18.788Z,79.40
2018-08-11T12:56:49.163Z,79.30
2018-08-11T12:59:19.496Z,81.80
2018-08-11T13:01:49.852Z,82.50
2018-08-11T13:04:20.483Z,80.30
2018-08-11T13:06:51.116Z,80.80
2018-08-11T13:09:21.403Z,79.70
2018-08-11T13:11:51.850Z,78.70
2018-08-11T13:14:22.207Z,77.70
2018-08-11T13:16:52.530Z,78.40
2018-08-11T13:19:22.922Z,78.40
2018-08-11T13:21:53.240Z,77.70
2018-08-11T13:24:23.663Z,78.60
2018-08-11T13:26:53.926Z,76.50
2018-08-11T13:29:24.299Z,74.70
2018-08-11T13:31:54.567Z,76.30
2018-08-11T13:34:24.891Z,75.70
2018-08-11T13:36:55.208Z,74.80
2018-08-11T13:39:25.559Z,72.20
2018-08-11T13:41:55.933Z,69.70
2018-08-11T13:44:26.388Z,68.40
2018-08-11T13:46:56.707Z,65.60
2018-08-11T13:49:27.027Z,65.00
2018-08-11T13:51:57.328Z,61.60
2018-08-11T13:54:27.827Z,64.20
2018-08-11T13:56:57.979Z,62.00
2018-08-11T13:59:28.372Z,62.60
2018-08-11T14:01:58.716Z,63.30
2018-08-11T14:04:29.132Z,61.60
2018-08-11T14:06:59.683Z,65.00
2018-08-11T14:09:30.127Z,65.30
2018-08-11T14:12:00.436Z,64.50
2018-08-11T14:14:30.868Z,64.50
2018-08-11T14:17:01.216Z,63.70
2018-08-11T14:19:31.790Z,62.30
2018-08-11T14:22:02.164Z,60.70
2018-08-11T14:24:32.607Z,61.10
2018-08-11T14:27:03.031Z,60.90
2018-08-11T14:29:33.422Z,62.10
2018-08-11T14:32:03.809Z,62.60
2018-08-11T14:34:34.224Z,62.40
2018-08-11T14:37:04.629Z,63.80
2018-08-11T14:39:34.937Z,64.10
2018-08-11T14:42:05.330Z,60.30
2018-08-11T14:44:35.803Z,59.30
2018-08-11T14:47:06.177Z,58.90
2018-08-11T14:49:36.491Z,58.00
2018-08-11T14:52:06.919Z,57.30
2018-08-11T14:54:37.308Z,56.40
2018-08-11T14:57:07.802Z,54.40
2018-08-11T14:59:38.218Z,54.50
2018-08-11T15:02:08.636Z,50.90
2018-08-11T15:04:38.983Z,52.00
2018-08-11T15:07:09.464Z,51.30
2018-08-11T15:09:39.921Z,50.00
2018-08-11T15:12:10.189Z,52.20
2018-08-11T15:14:40.510Z,51.10
2018-08-11T15:17:10.876Z,50.30
2018-08-11T15:19:41.233Z,48.00
2018-08-11T15:22:11.606Z,48.30
2018-08-11T15:24:41.931Z,48.50
2018-08-11T15:27:12.226Z,48.00
2018-08-11T15:29:42.592Z,47.40
2018-08-11T15:32:13.268Z,44.80
2018-08-11T15:34:43.677Z,45.00
2018-08-11T15:37:13.972Z,44.80
2018-08-11T15:39:44.318Z,44.90
2018-08-11T15:42:14.682Z,45.10
2018-08-11T15:44:45.527Z,43.00
2018-08-11T15:47:15.913Z,42.00
2018-08-11T15:49:46.327Z,40.10
2018-08-11T15:52:16.661Z,39.90
2018-08-11T15:54:47.024Z,39.40
2018-08-11T15:57:17.317Z,38.60
2018-08-11T15:59:47.643Z,38.00
2018-08-11T16:02:17.955Z,36.50
2018-08-11T16:04:48.315Z,36.10
2018-08-11T16:07:18.752Z,36.40
2018-08-11T16:09:49.091Z,37.90
2018-08-11T16:12:19.481Z,38.60
2018-08-11T16:14:49.816Z,38.70
2018-08-11T16:17:20.118Z,41.60
2018-08-11T16:19:50.471Z,42.50
2018-08-11T16:22:20.863Z,43.90
2018-08-11T16:24:51.227Z,45.80
2018-08-11T16:27:21.619Z,46.00
2018-08-11T16:29:51.932Z,45.90
2018-08-11T16:32:22.296Z,46.90
2018-08-11T16:34:52.723Z,47.70
2018-08-11T16:37:23.063Z,49.00
2018-08-11T16:39:53.404Z,49.90
2018-08-11T16:42:23.752Z,50.50
2018-08-11T16:44:54.042Z,52.00
2018-08-11T16:47:24.340Z,52.60
2018-08-11T16:49:54.688Z,52.60
2018-08-11T16:52:25.062Z,53.30
2018-08-11T16:54:55.420Z,53.60
2018-08-11T16:57:25.783Z,54.40
2018-08-11T16:59:56.150Z,55.80
2018-08-11T17:02:26.483Z,56.10
2018-08-11T17:04:56.824Z,58.30
2018-08-11T17:07:27.426Z,58.10
2018-08-11T17:09:57.791Z,57.70
2018-08-11T17:12:28.147Z,57.80
2018-08-11T17:14:58.544Z,60.00
2018-08-11T17:17:28.866Z,62.20
2018-08-11T17:19:59.223Z,62.20
2018-08-11T17:22:29.528Z,61.70
2018-08-11T17:24:59.962Z,61.80
2018-08-11T17:27:30.292Z,62.80
2018-08-11T17:30:00.675Z,62.60
2018-08-11T17:32:31.050Z,62.80
2018-08-11T17:35:01.399Z,63.80
2018-08-11T17:37:31.772Z,64.20
2018-08-11T17:40:02.131Z,64.30
2018-08-11T17:42:32.488Z,64.80
2018-08-11T17:45:02.836Z,65.30
2018-08-11T17:47:33.190Z,67.90
2018-08-11T17:50:03.666Z,69.80
2018-08-11T17:52:34.046Z,68.00
2018-08-11T17:55:04.390Z,70.10
2018-08-11T17:57:34.707Z,72.10
2018-08-11T18:00:05.927Z,72.60
2018-08-11T18:02:36.269Z,73.00
2018-08-11T18:05:07.086Z,74.70
2018-08-11T18:07:37.627Z,75.30
2018-08-11T18:10:08.066Z,75.20
2018-08-11T18:12:38.431Z,76.70
2018-08-11T18:15:08.733Z,77.50
2018-08-11T18:17:39.027Z,77.60
2018-08-11T18:20:09.477Z,77.70
2018-08-11T18:22:39.812Z,78.50
2018-08-11T18:25:10.145Z,78.00
2018-08-11T18:27:40.482Z,78.80
2018-08-11T18:30:11.184Z,79.60
2018-08-11T18:32:41.571Z,79.10
2018-08-11T18:35:11.949Z,79.70
2018-08-11T18:37:42.299Z,80.10
2018-08-11T18:40:12.775Z,80.40
2018-08-11T18:42:43.179Z,80.90
2018-08-11T18:45:13.856Z,81.70
2018-08-11T18:47:44.253Z,82.70
2018-08-11T18:50:14.690Z,81.90
2018-08-11T18:52:45.061Z,82.20
2018-08-11T18:55:15.483Z,83.20
2018-08-11T18:57:45.915Z,82.90
2018-08-11T19:00:18.580Z,83.60
2018-08-11T19:02:48.896Z,84.30
2018-08-11T19:05:19.357Z,84.30
2018-08-11T19:07:49.848Z,84.80
2018-08-11T19:10:20.676Z,85.30
2018-08-11T19:12:51.088Z,86.10
2018-08-11T19:15:21.410Z,86.30
2018-08-11T19:17:51.761Z,86.50
2018-08-11T19:20:22.129Z,86.50
2018-08-11T19:22:52.569Z,87.20
2018-08-11T19:25:22.948Z,87.60
2018-08-11T19:27:53.295Z,88.40
2018-08-11T19:30:23.703Z,88.10
2018-08-11T19:32:54.029Z,87.20
2018-08-11T19:35:24.411Z,87.10
2018-08-11T19:37:54.779Z,87.90
2018-08-11T19:40:25.167Z,88.20
2018-08-11T19:42:55.588Z,88.10
2018-08-11T19:45:25.982Z,88.40
2018-08-11T19:47:56.276Z,88.30
2018-08-11T19:50:26.644Z,88.30
2018-08-11T19:52:56.932Z,88.70
2018-08-11T19:55:27.255Z,89.00
2018-08-11T19:57:57.656Z,89.20
2018-08-11T20:00:28.040Z,89.40
2018-08-11T20:02:58.427Z,89.50
2018-08-11T20:05:28.945Z,89.50
2018-08-11T20:07:59.696Z,89.80
2018-08-11T20:10:30.068Z,89.90
2018-08-11T20:13:00.336Z,89.80
2018-08-11T20:15:30.648Z,90.00
2018-08-11T20:18:01.004Z,90.00
2018-08-11T20:20:31.510Z,90.10
2018-08-11T20:23:01.866Z,90.10
2018-08-11T20:25:32.377Z,90.10
2018-08-11T20:28:02.608Z,90.10
2018-08-11T20:30:32.919Z,90.20
2018-08-11T20:33:03.321Z,90.40
2018-08-11T20:35:33.748Z,90.30
2018-08-11T20:38:04.194Z,90.90
2018-08-11T20:40:34.552Z,90.60
2018-08-11T20:43:04.970Z,90.60
2018-08-11T20:45:35.887Z,90.70
2018-08-11T20:48:06.278Z,90.80
2018-08-11T20:50:36.943Z,90.70
2018-08-11T20:53:07.304Z,91.00
2018-08-11T20:55:37.780Z,91.00
2018-08-11T20:58:08.124Z,91.30
2018-08-11T21:00:38.492Z,91.40
2018-08-11T21:03:12.275Z,91.50
2018-08-11T21:05:42.723Z,91.50
2018-08-11T21:08:13.176Z,91.40
2018-08-11T21:10:43.581Z,91.40
2018-08-11T21:13:14.874Z,91.60
2018-08-11T21:15:45.307Z,91.60
2018-08-11T21:18:15.655Z,91.50
2018-08-11T21:20:46.202Z,91.40
2018-08-11T21:23:16.580Z,91.50
2018-08-11T21:25:46.960Z,91.70
2018-08-11T21:28:17.391Z,92.30
2018-08-11T21:30:47.813Z,92.00
2018-08-11T21:33:18.271Z,92.00
2018-08-11T21:35:48.684Z,92.10
2018-08-11T21:38:19.083Z,91.90
2018-08-11T21:40:49.544Z,91.90
2018-08-11T21:43:19.939Z,92.00
2018-08-11T21:45:50.388Z,92.20
2018-08-11T21:48:20.730Z,92.10
2018-08-11T21:50:51.122Z,92.10
2018-08-11T21:53:21.619Z,92.20
2018-08-11T21:55:52.120Z,92.20
2018-08-11T21:58:22.463Z,92.20
2018-08-11T22:00:56.896Z,92.10
2018-08-11T22:03:27.313Z,92.10
2018-08-11T22:05:57.823Z,92.40
2018-08-11T22:08:28.491Z,92.30
2018-08-11T22:10:58.954Z,92.30
2018-08-11T22:13:29.325Z,92.20
2018-08-11T22:16:00.185Z,92.20
2018-08-11T22:18:30.964Z,92.30
2018-08-11T22:21:02.200Z,92.30
2018-08-11T22:23:32.616Z,92.20
2018-08-11T22:26:03.093Z,92.30
2018-08-11T22:28:34.442Z,92.30
2018-08-11T22:31:04.839Z,92.40
2018-08-11T22:33:35.208Z,92.50
2018-08-11T22:36:06.710Z,92.50
2018-08-11T22:38:37.073Z,92.60
2018-08-11T22:41:07.630Z,92.50
2018-08-11T22:43:38.095Z,92.40
2018-08-11T22:46:08.609Z,92.50
2018-08-11T22:48:38.973Z,92.80
2018-08-11T22:51:09.396Z,92.40
2018-08-11T22:53:39.802Z,92.50
2018-08-11T22:56:10.305Z,92.20
2018-08-11T22:58:40.701Z,92.20
2018-08-11T23:01:11.176Z,92.20
2018-08-11T23:03:41.599Z,92.30
2018-08-11T23:06:11.950Z,92.30
2018-08-11T23:08:42.524Z,92.30
2018-08-11T23:11:12.893Z,92.40
2018-08-11T23:13:43.297Z,92.20
2018-08-11T23:16:13.826Z,92.20
2018-08-11T23:18:44.219Z,92.20
2018-08-11T23:21:14.679Z,92.10
2018-08-11T23:23:45.012Z,92.20
2018-08-11T23:26:15.446Z,92.40
2018-08-11T23:28:46.006Z,92.40
2018-08-11T23:31:16.568Z,92.40
2018-08-11T23:33:46.947Z,92.00
2018-08-11T23:36:17.330Z,92.20
2018-08-11T23:38:47.663Z,91.90
2018-08-11T23:41:17.952Z,91.70
2018-08-11T23:43:48.341Z,91.80
2018-08-11T23:46:18.718Z,91.80
2018-08-11T23:48:49.212Z,91.70
2018-08-11T23:51:19.631Z,91.70
2018-08-11T23:53:49.995Z,91.60
2018-08-11T23:56:21.313Z,91.50
2018-08-11T23:58:51.732Z,91.40
